KRYY/RYY METAR and TAF weather

Enter ICAO airport designator
Station Type Date Time Source
KRYY METAR 2020/04/03 06:50 UTC NOAA

KRYY 030650Z AUTO 00000KT 10SM CLR 07/04 A3003 RMK AO2 SLP890 T00720039 PNO $


Station Type Date Time Source
KRYY Decoded METAR 2020/04/03 06:50 UTC NOAA

Marietta, Cobb County-McCollum Field Airport, GA, United States (KRYY) 34-00-47N 084-35-55W
Apr 03, 2020 - 02:50 AM EDT / 2020.04.03 0650 UTC
Wind: Calm:0
Visibility: 10 mile(s):0
Sky conditions: clear
Temperature: 45.0 F (7.2 C)
Dew Point: 39.0 F (3.9 C)
Relative Humidity: 79%
Pressure (altimeter): 30.03 in. Hg (1016 hPa)
ob: KRYY 030650Z AUTO 00000KT 10SM CLR 07/04 A3003 RMK AO2 SLP890 T00720039 PNO
cycle: 7

Station Type Date Time Source
KRYY TAF 2020/04/03 06:45 UTC NOAA

TAF KRYY 030542Z 0306/0406 24003KT P6SM SKC
FM032100 31006KT P6SM SKC

Example: see airport list